Time;durP1;ratioP1;P1;durP2;ratioP2;P2;SDS_P1;SDS_P2;PMS_P1;PMS_P2;Temp;Humidity;BMP_temperature;BMP_pressure;BME280_temperature;BME280_humidity;BME280_pressure;Samples;Min_cycle;Max_cycle;Signal;HPM_P1;HPM_P2
2022/03/01 00:02:03;;;;;;;32.92;22.25;;;8.30;99.90;;;8.46;55.50;102594.88;5094369;28;20462;-71
2022/03/01 00:04:31;;;;;;;31.90;22.15;;;8.30;99.90;;;8.52;54.92;102605.56;5094487;28;20139;-71
2022/03/01 00:07:00;;;;;;;30.35;22.50;;;8.30;99.90;;;8.48;55.30;102598.44;5094242;28;20072;-71
2022/03/01 00:09:29;;;;;;;33.22;22.48;;;8.20;99.90;;;8.52;55.30;102610.84;5094365;28;20382;-71
2022/03/01 00:11:57;;;;;;;35.45;23.38;;;8.30;99.90;;;8.53;55.21;102605.66;5094335;28;20052;-71
2022/03/01 00:14:26;;;;;;;35.47;22.92;;;8.30;99.90;;;8.51;55.02;102604.72;5094359;28;20074;-71
2022/03/01 00:16:55;;;;;;;31.50;21.95;;;8.30;99.90;;;8.53;55.12;102612.66;5093967;28;20048;-71
2022/03/01 00:19:27;;;;;;;38.72;24.73;;;8.40;99.90;;;8.57;54.96;102602.25;5094491;28;20097;-73
2022/03/01 00:21:58;;;;;;;33.70;22.60;;;8.40;99.90;;;8.47;54.99;102587.00;5093972;28;20036;-71
2022/03/01 00:24:28;;;;;;;31.52;22.65;;;8.50;99.90;;;8.71;55.05;102611.47;5094180;28;20111;-71
2022/03/01 00:26:56;;;;;;;35.58;22.92;;;8.50;99.90;;;8.71;54.87;102602.69;5094139;28;20094;-71
2022/03/01 00:29:24;;;;;;;33.22;22.15;;;8.60;99.90;;;8.66;54.86;102599.00;5094077;28;20044;-71
2022/03/01 00:31:55;;;;;;;33.85;23.08;;;8.50;99.90;;;8.60;54.91;102598.81;5093774;28;20122;-71
2022/03/01 00:34:24;;;;;;;30.60;23.00;;;8.30;99.90;;;8.52;55.45;102597.66;5094226;28;20119;-71
2022/03/01 00:36:55;;;;;;;36.88;22.27;;;8.20;99.90;;;8.40;55.55;102589.41;5093759;28;20102;-71
2022/03/01 00:39:23;;;;;;;30.58;21.83;;;8.10;99.90;;;8.33;56.23;102605.84;5093547;28;20036;-71
2022/03/01 00:41:51;;;;;;;34.03;22.88;;;8.00;99.90;;;8.35;55.72;102598.88;5075681;28;20075;-71
2022/03/01 00:44:20;;;;;;;31.25;21.77;;;8.00;99.90;;;8.34;55.87;102599.75;5093801;28;20055;-71
2022/03/01 00:46:49;;;;;;;34.35;22.75;;;8.10;99.90;;;8.37;55.97;102592.81;5093799;28;20044;-72
2022/03/01 00:49:18;;;;;;;29.83;21.33;;;8.10;99.90;;;8.40;55.52;102595.53;5093489;28;20067;-71
2022/03/01 00:51:47;;;;;;;32.08;22.60;;;8.20;99.90;;;8.48;55.47;102603.72;5093693;28;20052;-71
2022/03/01 00:54:18;;;;;;;32.65;22.23;;;8.30;99.90;;;8.47;55.41;102602.81;5093649;28;20040;-71
2022/03/01 00:56:52;;;;;;;34.15;21.73;;;8.30;99.90;;;8.45;55.11;102601.88;5075038;28;20052;-71
2022/03/01 00:59:22;;;;;;;33.72;22.23;;;8.30;99.90;;;8.37;55.38;102603.38;5074564;28;20486;-71
2022/03/01 01:01:50;;;;;;;37.60;22.27;;;8.30;99.90;;;8.37;55.72;102603.38;5093431;28;20378;-71
2022/03/01 01:04:18;;;;;;;31.70;21.52;;;8.30;99.90;;;8.33;56.04;102597.94;5093493;28;20046;-71
2022/03/01 01:06:48;;;;;;;31.15;22.27;;;8.20;99.90;;;8.31;55.80;102592.63;5093834;28;20085;-71
2022/03/01 01:09:17;;;;;;;33.05;23.00;;;8.20;99.90;;;8.19;56.29;102600.97;5075415;28;20131;-71
2022/03/01 01:11:45;;;;;;;32.47;22.55;;;8.10;99.90;;;8.11;56.75;102591.00;5093098;28;20500;-71
2022/03/01 01:14:14;;;;;;;35.72;23.60;;;7.90;99.90;;;7.90;57.24;102595.56;5093156;28;20101;-72
2022/03/01 01:16:43;;;;;;;37.28;24.50;;;7.70;99.90;;;7.65;58.36;102593.84;5093073;28;20040;-72
2022/03/01 01:19:13;;;;;;;32.60;23.00;;;7.50;99.90;;;7.60;58.15;102590.16;5093134;28;20040;-71
2022/03/01 01:24:29;;;;;;;33.53;23.70;;;7.50;99.90;;;7.94;57.56;102598.38;5093130;28;20101;-71
2022/03/01 01:26:57;;;;;;;34.37;22.77;;;7.60;99.90;;;7.97;57.50;102590.59;5093040;28;20059;-71
2022/03/01 01:29:25;;;;;;;36.00;23.30;;;7.70;99.90;;;8.02;57.51;102594.25;5093281;28;20313;-71
2022/03/01 01:31:54;;;;;;;33.13;23.85;;;7.70;99.90;;;7.90;57.37;102600.84;5093242;28;20068;-71
2022/03/01 01:34:22;;;;;;;34.47;24.05;;;7.70;99.90;;;7.76;58.17;102599.50;5092951;28;20076;-72
2022/03/01 01:36:51;;;;;;;34.30;24.52;;;7.60;99.90;;;7.70;58.31;102594.00;5093243;28;20094;-71
2022/03/01 01:39:19;;;;;;;35.78;23.13;;;7.50;99.90;;;7.76;58.36;102589.84;5092806;28;20044;-71
2022/03/01 01:41:49;;;;;;;38.15;23.83;;;7.50;99.90;;;7.72;58.62;102589.69;5092875;28;20043;-72
2022/03/01 01:44:19;;;;;;;34.50;23.63;;;7.50;99.90;;;7.73;58.59;102588.84;5093154;28;20048;-71
2022/03/01 01:46:48;;;;;;;33.47;23.00;;;7.50;99.90;;;7.73;58.62;102589.75;5093203;28;20056;-71
2022/03/01 01:49:17;;;;;;;38.47;23.45;;;7.40;99.90;;;7.74;58.69;102583.63;5074962;28;20497;-71
2022/03/01 01:51:45;;;;;;;35.75;25.45;;;7.40;99.90;;;7.82;58.41;102584.78;5093101;28;20120;-71
2022/03/01 01:54:14;;;;;;;33.83;24.50;;;7.50;99.90;;;7.66;58.69;102581.56;5092758;28;20089;-71
2022/03/01 01:56:44;;;;;;;36.67;24.75;;;7.40;99.90;;;7.78;58.63;102580.25;5092860;28;20047;-71
2022/03/01 01:59:14;;;;;;;34.80;24.67;;;7.50;99.90;;;7.63;59.11;102573.56;5074773;28;20409;-71
2022/03/01 02:01:42;;;;;;;35.03;25.40;;;7.40;99.90;;;7.52;59.16;102586.34;5074531;28;20501;-71
2022/03/01 02:04:11;;;;;;;33.78;24.13;;;7.30;99.90;;;7.56;59.42;102577.72;5092931;28;20071;-71
2022/03/01 02:06:51;;;;;;;32.95;23.73;;;7.40;99.90;;;7.48;59.93;102562.50;5092658;28;20043;-71
2022/03/01 02:09:20;;;;;;;34.25;23.67;;;7.30;99.90;;;7.33;60.21;102557.59;5093293;28;20055;-71
2022/03/01 02:11:48;;;;;;;33.75;24.55;;;7.10;99.90;;;7.30;60.33;102557.47;5095662;28;20101;-71
2022/03/01 02:14:18;;;;;;;33.22;24.15;;;7.00;99.90;;;7.38;60.38;102560.38;5096661;28;20048;-72
2022/03/01 02:16:48;;;;;;;36.55;24.73;;;7.10;99.90;;;7.39;60.33;102560.44;5096456;28;20044;-71
2022/03/01 02:19:17;;;;;;;37.83;25.58;;;7.10;99.90;;;7.32;60.24;102540.00;5096662;28;20047;-71
2022/03/01 02:21:52;;;;;;;34.08;24.30;;;7.20;99.90;;;7.32;59.93;102518.94;5096465;28;20079;-72
2022/03/01 02:24:20;;;;;;;37.75;23.75;;;7.40;99.90;;;7.56;59.62;102561.94;5096260;28;20071;-73
2022/03/01 02:26:49;;;;;;;37.88;26.17;;;7.50;99.90;;;7.43;59.41;102516.69;5096078;28;20048;-71
2022/03/01 02:29:18;;;;;;;34.92;24.63;;;7.50;99.90;;;7.71;59.46;102561.53;5095965;28;20119;-71
2022/03/01 02:31:46;;;;;;;37.35;25.77;;;7.60;99.90;;;7.70;59.38;102557.13;5096057;28;20043;-71
2022/03/01 02:34:15;;;;;;;40.22;24.00;;;7.60;99.90;;;7.68;59.11;102567.63;5095971;28;20050;-71
2022/03/01 02:36:45;;;;;;;37.40;24.23;;;7.60;99.90;;;7.61;59.33;102555.06;5096336;28;20044;-71
2022/03/01 02:39:17;;;;;;;39.22;26.00;;;7.50;99.90;;;7.54;59.47;102553.09;5095815;28;20791;-71
2022/03/01 02:41:47;;;;;;;33.05;23.65;;;7.50;99.90;;;7.57;59.70;102562.84;5096157;28;20443;-71
2022/03/01 02:44:17;;;;;;;36.50;25.63;;;7.50;99.90;;;7.22;59.64;102503.66;5095828;28;20455;-70
2022/03/01 02:46:47;;;;;;;38.85;25.13;;;7.50;99.90;;;7.57;59.46;102561.06;5096039;28;20062;-70
2022/03/01 02:49:15;;;;;;;36.50;24.88;;;7.40;99.90;;;7.46;60.10;102557.19;5095701;28;20048;-70
2022/03/01 02:51:44;;;;;;;37.63;25.17;;;7.30;99.90;;;7.43;60.44;102554.44;5095690;28;20075;-70
2022/03/01 02:54:13;;;;;;;42.35;25.90;;;7.30;99.90;;;7.36;60.37;102549.78;5095884;28;20068;-72
2022/03/01 02:56:42;;;;;;;37.60;26.27;;;7.20;99.90;;;7.18;60.85;102543.91;5095919;28;20097;-70
2022/03/01 02:59:11;;;;;;;37.35;25.55;;;7.00;99.90;;;7.12;60.73;102548.94;5077526;28;20086;-70
2022/03/01 03:01:40;;;;;;;38.65;25.35;;;7.00;99.90;;;6.89;61.42;102555.06;5095279;28;20048;-71
2022/03/01 03:04:09;;;;;;;44.70;26.17;;;6.80;99.90;;;6.97;61.43;102545.72;5077322;28;20058;-70
2022/03/01 03:06:37;;;;;;;39.17;25.77;;;6.70;99.90;;;7.11;61.33;102552.38;5095939;28;20040;-70
2022/03/01 03:09:06;;;;;;;48.58;27.52;;;6.80;99.90;;;6.92;61.99;102547.28;5095296;28;20085;-70
2022/03/01 03:11:35;;;;;;;41.67;25.95;;;6.80;99.90;;;6.71;62.48;102543.84;5095241;28;20051;-70
2022/03/01 03:14:04;;;;;;;36.97;25.95;;;6.60;99.90;;;6.85;62.47;102559.28;5095500;28;20093;-70
2022/03/01 03:16:33;;;;;;;37.10;27.02;;;6.60;99.90;;;6.99;62.51;102570.34;5095153;28;20125;-70
2022/03/01 03:19:02;;;;;;;35.15;25.60;;;6.80;99.90;;;6.95;62.61;102550.91;5095063;28;20060;-71
2022/03/01 03:21:30;;;;;;;37.53;26.92;;;6.80;99.90;;;6.94;62.58;102566.66;5077219;28;20050;-70
2022/03/01 03:23:58;;;;;;;40.33;26.63;;;6.80;99.90;;;6.95;62.81;102565.84;5076490;28;20047;-70
2022/03/01 03:26:27;;;;;;;34.30;24.88;;;6.70;99.90;;;7.08;62.59;102565.44;5095005;28;20044;-71
2022/03/01 03:28:56;;;;;;;37.05;25.40;;;6.80;99.90;;;7.15;62.02;102559.56;5095508;28;20079;-70
2022/03/01 03:31:25;;;;;;;42.13;28.05;;;6.90;99.90;;;7.06;61.74;102552.22;5094907;28;20489;-71
2022/03/01 03:33:53;;;;;;;35.55;25.08;;;7.00;99.90;;;7.13;61.98;102548.97;5076989;28;20048;-70
2022/03/01 03:36:22;;;;;;;43.25;27.65;;;7.00;99.90;;;7.14;62.54;102544.63;5076647;28;20048;-70
2022/03/01 03:38:50;;;;;;;35.63;25.05;;;7.00;99.90;;;7.11;62.75;102541.84;5094901;28;20044;-70
2022/03/01 03:41:19;;;;;;;39.05;26.77;;;7.00;99.90;;;7.14;63.11;102550.75;5094650;28;20105;-70
2022/03/01 03:43:47;;;;;;;36.63;26.17;;;7.00;99.90;;;7.22;62.90;102553.66;5094942;28;20139;-70
2022/03/01 03:46:18;;;;;;;35.95;25.73;;;7.00;99.90;;;7.24;62.81;102560.78;5094631;28;20044;-70
2022/03/01 03:48:46;;;;;;;38.67;26.52;;;7.10;99.90;;;6.49;62.69;102420.31;5094839;28;20048;-70
2022/03/01 03:51:15;;;;;;;40.30;25.90;;;7.20;99.90;;;7.28;62.46;102564.41;5076605;28;20060;-70
2022/03/01 03:53:43;;;;;;;39.03;27.35;;;7.20;99.90;;;7.33;62.52;102554.97;5094445;28;20044;-72
2022/03/01 03:56:12;;;;;;;39.38;28.27;;;7.20;99.90;;;7.28;62.61;102559.16;5094440;28;20063;-70
2022/03/01 03:58:40;;;;;;;35.83;24.85;;;7.20;99.90;;;7.25;62.33;102551.16;5094370;28;20567;-70
2022/03/01 04:01:09;;;;;;;38.00;25.95;;;7.10;99.90;;;7.28;62.32;102548.63;5094341;28;20109;-70
2022/03/01 04:03:39;;;;;;;41.53;27.17;;;7.20;99.90;;;7.26;62.41;102548.56;5094327;28;20051;-70
2022/03/01 04:06:08;;;;;;;40.03;26.48;;;7.20;99.90;;;7.27;62.65;102544.22;5094272;28;20497;-71
2022/03/01 04:08:36;;;;;;;40.33;26.17;;;7.10;99.90;;;7.21;62.14;102542.25;5094131;28;20059;-70
2022/03/01 04:11:05;;;;;;;36.47;25.20;;;7.10;99.90;;;7.26;62.22;102540.69;5076170;28;20086;-70
2022/03/01 04:13:34;;;;;;;38.97;25.95;;;7.10;99.90;;;7.28;62.33;102532.81;5094264;28;20079;-70
2022/03/01 04:16:03;;;;;;;38.55;26.13;;;7.10;99.90;;;7.20;62.71;102522.03;5094115;28;20117;-70
2022/03/01 04:18:31;;;;;;;39.72;26.40;;;7.00;99.90;;;7.30;62.46;102534.69;5094004;28;20048;-71
2022/03/01 04:21:05;;;;;;;39.47;27.10;;;7.10;99.90;;;7.19;62.62;102535.16;5093895;28;20036;-70
2022/03/01 04:23:33;;;;;;;39.83;26.20;;;7.20;99.90;;;7.23;62.49;102535.31;5094262;28;20050;-70
2022/03/01 04:26:04;;;;;;;39.17;26.13;;;7.10;99.90;;;7.04;62.00;102492.50;5094473;28;20044;-70
2022/03/01 04:28:33;;;;;;;36.67;26.00;;;7.20;99.90;;;7.34;61.63;102533.03;5093781;28;20068;-71
2022/03/01 04:31:01;;;;;;;36.38;26.55;;;7.20;99.90;;;7.35;61.78;102545.38;5093809;28;20068;-72
2022/03/01 04:33:30;;;;;;;39.08;26.95;;;7.20;99.90;;;7.39;61.67;102549.91;5093956;28;20437;-71
2022/03/01 04:36:02;;;;;;;41.53;26.45;;;7.20;99.90;;;7.52;61.33;102543.34;5094014;28;20040;-71
2022/03/01 04:38:33;;;;;;;41.25;26.38;;;7.30;99.90;;;7.42;61.12;102526.31;5075731;28;20545;-71
2022/03/01 04:41:01;;;;;;;37.38;26.05;;;7.40;99.90;;;7.51;61.34;102537.16;5093799;28;20040;-70
2022/03/01 04:43:30;;;;;;;36.72;26.55;;;7.50;99.90;;;7.53;61.49;102546.00;5093558;28;20044;-71
2022/03/01 04:45:58;;;;;;;39.83;26.55;;;7.50;99.90;;;7.37;61.71;102527.91;5093819;28;20070;-71
2022/03/01 04:48:27;;;;;;;37.55;26.77;;;7.40;99.90;;;7.60;61.32;102541.84;5093497;28;20042;-72
2022/03/01 04:50:56;;;;;;;37.65;26.25;;;7.40;99.90;;;7.66;61.15;102545.63;5093458;28;20127;-71
2022/03/01 04:53:24;;;;;;;37.05;25.15;;;7.40;99.90;;;7.55;61.13;102523.25;5093409;28;20436;-71
2022/03/01 04:55:54;;;;;;;37.28;25.65;;;7.50;99.90;;;7.68;60.70;102540.38;5093458;28;20118;-71
2022/03/01 04:58:22;;;;;;;38.73;27.10;;;7.50;99.90;;;7.38;60.90;102513.88;5093361;28;20139;-70
2022/03/01 05:00:54;;;;;;;37.13;25.27;;;7.40;99.90;;;7.42;61.57;102521.06;5093102;28;20071;-71
2022/03/01 05:03:24;;;;;;;39.63;25.02;;;7.30;99.90;;;7.62;60.88;102527.91;5093358;28;20071;-70
2022/03/01 05:05:52;;;;;;;40.00;25.27;;;7.40;99.90;;;7.67;60.69;102530.69;5075206;28;20436;-71
2022/03/01 05:08:21;;;;;;;37.38;25.20;;;7.50;99.90;;;7.48;61.04;102526.53;5093290;28;20071;-75
2022/03/01 05:10:49;;;;;;;35.42;25.70;;;7.30;99.90;;;7.43;61.26;102516.69;5093191;28;20064;-72
2022/03/01 05:13:19;;;;;;;39.55;26.13;;;7.20;99.90;;;7.50;61.15;102522.22;5093415;28;20052;-72
2022/03/01 05:15:47;;;;;;;37.60;27.63;;;7.20;99.90;;;7.54;61.17;102521.47;5093218;28;20101;-72
2022/03/01 05:18:16;;;;;;;37.33;26.42;;;7.20;99.90;;;7.48;61.68;102521.28;5093134;28;20040;-73
2022/03/01 05:20:44;;;;;;;36.20;26.10;;;7.30;99.90;;;7.43;61.71;102514.97;5093335;28;20459;-71
2022/03/01 05:23:13;;;;;;;37.40;25.92;;;7.20;99.90;;;7.55;61.26;102522.38;5092068;28;20048;-72
2022/03/01 05:25:43;;;;;;;35.53;24.10;;;7.20;99.90;;;7.18;61.42;102500.03;5092978;28;20489;-72
2022/03/01 05:28:11;;;;;;;35.80;26.30;;;7.10;99.90;;;7.05;62.87;102523.22;5093697;28;20066;-72
2022/03/01 05:30:41;;;;;;;38.92;26.27;;;6.80;99.90;;;7.14;62.75;102529.69;5075160;28;20050;-71
2022/03/01 05:33:10;;;;;;;35.45;25.48;;;6.80;99.90;;;7.10;62.37;102495.34;5093587;28;20051;-71
2022/03/01 05:35:38;;;;;;;35.28;25.40;;;6.90;99.90;;;7.36;62.06;102519.94;5093506;28;20040;-71
2022/03/01 05:38:09;;;;;;;37.47;25.95;;;7.00;99.90;;;7.17;62.60;102523.66;5092985;28;20115;-71
2022/03/01 05:40:39;;;;;;;39.28;25.80;;;6.90;99.90;;;7.17;63.08;102529.84;5093133;28;20494;-71
2022/03/01 05:43:08;;;;;;;37.03;25.55;;;6.90;99.90;;;7.21;62.97;102525.56;5091896;28;20439;-72
2022/03/01 05:45:37;;;;;;;34.65;25.08;;;6.90;99.90;;;7.53;62.30;102540.75;5093540;28;20036;-73
2022/03/01 05:48:06;;;;;;;34.63;26.52;;;7.20;99.90;;;7.76;61.53;102546.81;5096921;28;20043;-72
2022/03/01 05:50:35;;;;;;;41.55;25.45;;;7.40;99.90;;;7.89;61.05;102542.00;5097199;28;20048;-72
2022/03/01 05:53:04;;;;;;;37.72;26.27;;;7.60;99.90;;;7.94;60.78;102519.34;5097121;28;20040;-72
2022/03/01 05:55:34;;;;;;;32.33;25.25;;;7.70;99.90;;;8.05;60.51;102539.00;5096832;28;20052;-72
2022/03/01 05:58:02;;;;;;;37.28;26.13;;;7.70;99.90;;;8.10;60.16;102531.25;5097007;28;20091;-73
2022/03/01 06:00:31;;;;;;;32.22;24.27;;;7.80;99.90;;;8.07;60.56;102532.06;5097122;28;20438;-71
2022/03/01 06:02:59;;;;;;;37.75;26.17;;;7.80;99.90;;;8.12;60.78;102527.84;5096980;28;20052;-71
2022/03/01 06:05:30;;;;;;;36.10;25.23;;;7.90;99.90;;;8.07;61.02;102526.78;5096796;28;20052;-72
2022/03/01 06:07:59;;;;;;;38.78;24.80;;;7.80;99.90;;;7.68;61.77;102530.75;5096791;28;20048;-72
2022/03/01 06:10:28;;;;;;;38.58;25.88;;;7.50;99.90;;;7.59;62.04;102522.53;5096463;28;20040;-71
2022/03/01 06:12:57;;;;;;;45.97;24.60;;;7.40;99.90;;;7.69;62.00;102521.09;5078517;28;20498;-71
2022/03/01 06:15:25;;;;;;;42.92;25.35;;;7.40;99.90;;;7.58;62.29;102518.13;5096595;28;20093;-71
2022/03/01 06:17:54;;;;;;;40.05;24.27;;;7.40;99.90;;;7.39;62.36;102504.25;5078320;28;20058;-72
2022/03/01 06:20:22;;;;;;;36.00;24.38;;;7.30;99.90;;;7.36;62.85;102512.94;5096256;28;20425;-71
2022/03/01 06:22:52;;;;;;;36.38;24.85;;;7.20;99.90;;;7.22;63.10;102494.03;5096531;28;20134;-69
2022/03/01 06:25:22;;;;;;;40.65;24.58;;;7.10;99.90;;;7.36;63.07;102506.78;5095946;28;20046;-69
2022/03/01 06:27:53;;;;;;;36.42;24.75;;;7.20;99.90;;;7.13;62.27;102417.41;5096048;28;20110;-70
2022/03/01 06:30:22;;;;;;;37.10;24.33;;;7.40;99.90;;;7.86;61.87;102530.44;5096137;28;20075;-69
2022/03/01 06:32:53;;;;;;;39.00;24.33;;;7.50;99.90;;;7.67;62.05;102534.22;5096107;28;20033;-68
2022/03/01 06:35:22;;;;;;;37.40;24.15;;;7.40;99.90;;;7.59;61.97;102519.88;5095905;28;20044;-68
2022/03/01 06:37:55;;;;;;;35.72;24.27;;;7.50;99.90;;;7.62;61.69;102500.69;5096335;28;20076;-69
2022/03/01 06:40:24;;;;;;;38.80;25.50;;;7.60;99.90;;;7.57;62.03;102547.91;5096391;28;20040;-69
2022/03/01 06:42:52;;;;;;;37.58;24.95;;;7.40;99.90;;;7.14;62.77;102502.53;5095958;28;20059;-69
2022/03/01 06:45:21;;;;;;;36.42;24.42;;;7.20;99.90;;;6.53;63.68;102403.81;5095931;28;20436;-70
2022/03/01 06:47:49;;;;;;;38.40;24.65;;;7.10;99.90;;;7.35;63.93;102549.75;5095736;28;20043;-70
2022/03/01 06:50:18;;;;;;;37.22;25.73;;;7.00;99.90;;;7.38;64.13;102556.00;5095644;28;20043;-68
2022/03/01 06:52:46;;;;;;;35.92;24.88;;;7.10;99.90;;;7.38;63.92;102544.56;5095462;28;20051;-72
2022/03/01 06:55:16;;;;;;;36.92;25.58;;;7.20;99.90;;;7.41;63.68;102553.50;5095396;28;20048;-70
2022/03/01 06:57:45;;;;;;;36.03;26.02;;;7.30;99.90;;;7.57;63.83;102555.81;5094065;28;20497;-69
2022/03/01 07:00:15;;;;;;;38.17;26.50;;;7.30;99.90;;;7.67;64.20;102570.19;5095691;28;20123;-69
2022/03/01 07:02:43;;;;;;;38.33;25.83;;;7.40;99.90;;;7.53;63.96;102546.00;5095589;28;20103;-69
2022/03/01 07:05:15;;;;;;;36.10;25.15;;;7.40;99.90;;;7.54;64.07;102557.44;5095363;28;20051;-70
2022/03/01 07:07:44;;;;;;;37.83;25.90;;;7.30;99.90;;;7.33;64.29;102531.28;5095664;28;20476;-70
2022/03/01 07:10:16;;;;;;;41.25;25.15;;;7.20;99.90;;;7.52;63.71;102565.28;5095509;28;20048;-70
2022/03/01 07:12:46;;;;;;;39.05;25.45;;;7.30;99.90;;;7.61;63.54;102554.16;5095714;28;20416;-69
2022/03/01 07:15:15;;;;;;;39.03;25.90;;;7.40;99.90;;;7.88;62.95;102577.09;5095639;28;20101;-70
2022/03/01 07:17:45;;;;;;;37.22;25.27;;;7.60;99.90;;;7.85;63.09;102566.47;5095547;28;20309;-70
2022/03/01 07:20:14;;;;;;;31.38;23.15;;;7.60;99.90;;;7.53;63.24;102572.34;5095460;28;20048;-70
2022/03/01 07:22:43;;;;;;;39.38;25.13;;;7.40;99.90;;;7.21;64.46;102557.16;5077165;28;20040;-70
2022/03/01 07:25:14;;;;;;;38.90;26.13;;;7.20;99.90;;;7.08;64.84;102554.91;5095015;28;20105;-69
2022/03/01 07:27:50;;;;;;;38.90;25.13;;;7.00;99.90;;;7.42;64.34;102583.31;5095360;28;20043;-70
2022/03/01 07:30:19;;;;;;;36.08;25.23;;;7.10;99.90;;;7.58;63.94;102585.69;5094983;28;20036;-71
2022/03/01 07:32:49;;;;;;;39.83;25.58;;;7.20;99.90;;;7.43;63.88;102590.41;5094859;28;20109;-70
2022/03/01 07:35:17;;;;;;;37.38;24.95;;;7.20;99.90;;;7.44;64.88;102595.72;5094806;28;20055;-70
2022/03/01 07:37:46;;;;;;;37.08;24.10;;;7.20;99.90;;;7.39;65.05;102593.75;5076869;28;20109;-70
2022/03/01 07:40:18;;;;;;;36.20;25.63;;;7.10;99.90;;;7.37;65.13;102569.13;5094993;28;20123;-69
2022/03/01 07:42:50;;;;;;;42.35;25.17;;;7.20;99.90;;;7.51;65.28;102595.09;5094603;28;20044;-70
2022/03/01 07:45:20;;;;;;;37.42;24.90;;;7.20;99.90;;;7.48;65.54;102601.97;5094604;28;20056;-69
2022/03/01 07:47:51;;;;;;;39.13;25.02;;;7.20;99.90;;;7.32;65.56;102601.44;5094721;28;20114;-70
2022/03/01 07:50:20;;;;;;;35.88;23.85;;;7.10;99.90;;;7.29;65.44;102597.81;5094535;28;20048;-70
2022/03/01 07:52:51;;;;;;;34.13;25.02;;;7.00;99.90;;;7.20;66.53;102581.69;5094538;28;20501;-70
2022/03/01 07:55:20;;;;;;;35.55;23.02;;;7.00;99.90;;;7.08;66.53;102597.00;5094884;28;20097;-70
2022/03/01 07:57:53;;;;;;;38.90;24.65;;;6.90;99.90;;;7.03;67.30;102601.19;5094735;28;20060;-70
2022/03/01 08:00:24;;;;;;;37.17;25.35;;;6.80;99.90;;;6.97;67.50;102603.59;5094697;28;20093;-70
2022/03/01 08:02:53;;;;;;;43.25;25.13;;;6.70;99.90;;;7.06;67.49;102609.22;5094340;28;20074;-70
2022/03/01 08:05:22;;;;;;;35.55;23.23;;;6.80;99.90;;;7.38;66.58;102607.75;5094097;28;20043;-70
2022/03/01 08:07:56;;;;;;;36.58;25.48;;;7.00;99.90;;;7.35;66.29;102634.88;5076484;28;20379;-69
2022/03/01 08:10:25;;;;;;;35.95;25.63;;;7.00;99.90;;;7.32;66.47;102624.22;5094553;28;20048;-70
2022/03/01 08:12:56;;;;;;;36.00;24.95;;;7.00;99.90;;;6.87;67.11;102570.78;5094436;28;20036;-69
2022/03/01 08:15:26;;;;;;;37.50;26.27;;;6.90;99.90;;;7.09;67.33;102619.84;5094291;28;20048;-70
2022/03/01 08:17:57;;;;;;;39.45;25.88;;;6.80;99.90;;;7.11;67.58;102619.06;5094013;28;20482;-70
2022/03/01 08:20:27;;;;;;;37.95;25.08;;;6.90;99.90;;;7.09;67.87;102594.44;5094025;28;20040;-70
2022/03/01 08:22:57;;;;;;;38.03;25.42;;;6.90;99.90;;;7.48;67.73;102634.47;5093770;28;20143;-70
2022/03/01 08:25:26;;;;;;;39.03;26.05;;;7.10;99.90;;;7.59;67.76;102624.34;5093857;28;20119;-71
2022/03/01 08:27:59;;;;;;;34.67;23.40;;;7.20;99.90;;;7.75;66.93;102624.03;5094151;28;20486;-70
2022/03/01 08:30:29;;;;;;;38.78;25.92;;;7.40;99.90;;;7.89;66.63;102621.03;5094058;28;20048;-70
2022/03/01 08:32:59;;;;;;;37.65;25.30;;;7.60;99.90;;;8.04;66.36;102626.84;5093665;28;20497;-70
2022/03/01 08:35:27;;;;;;;40.13;26.23;;;7.80;99.90;;;7.94;66.46;102606.28;5093595;28;20048;-70
2022/03/01 08:38:00;;;;;;;36.08;24.60;;;7.80;99.90;;;8.04;65.76;102626.84;5093622;28;20082;-70
2022/03/01 08:40:28;;;;;;;36.20;24.17;;;7.90;99.90;;;8.07;66.31;102618.16;5093858;28;20082;-71
2022/03/01 08:43:01;;;;;;;37.85;24.73;;;7.80;99.90;;;8.35;65.93;102634.06;5093498;28;20131;-70
2022/03/01 08:45:29;;;;;;;36.65;24.77;;;8.00;99.90;;;8.30;65.58;102630.38;5093827;28;20052;-70
2022/03/01 08:47:58;;;;;;;36.05;25.63;;;8.00;99.90;;;8.34;66.57;102641.91;5093802;28;20087;-70
2022/03/01 08:50:27;;;;;;;35.78;24.52;;;8.00;99.90;;;8.28;66.74;102618.00;5093581;28;20056;-70
2022/03/01 08:53:13;;;;;;;41.40;24.88;;;8.10;99.90;;;8.52;66.90;102653.03;5093416;28;20075;-70
2022/03/01 08:55:43;;;;;;;35.90;24.42;;;8.20;99.90;;;8.64;66.84;102649.06;5093252;28;20493;-70
2022/03/01 08:58:13;;;;;;;38.33;25.98;;;8.30;99.90;;;8.76;66.47;102633.66;5093319;28;20119;-70
2022/03/01 09:00:41;;;;;;;33.53;24.27;;;8.50;99.90;;;8.90;66.29;102647.25;5075534;28;20420;-70
2022/03/01 09:03:10;;;;;;;34.10;23.75;;;8.60;99.90;;;9.00;65.83;102651.97;5093439;28;20106;-70
2022/03/01 09:05:59;;;;;;;38.72;25.38;;;8.70;99.90;;;9.02;65.92;102660.81;5093574;28;20089;-70
2022/03/01 09:08:31;;;;;;;38.22;24.48;;;8.80;99.90;;;8.50;65.35;102536.97;5093221;28;20443;-70
2022/03/01 09:10:59;;;;;;;40.28;24.75;;;8.80;99.90;;;9.02;65.26;102619.47;5093414;28;20074;-69
2022/03/01 09:13:29;;;;;;;36.28;25.73;;;8.90;99.90;;;9.24;65.55;102652.69;5093219;28;20094;-70
2022/03/01 09:15:58;;;;;;;35.38;24.30;;;9.00;99.90;;;9.30;65.01;102658.16;5093643;28;20048;-69
2022/03/01 09:18:28;;;;;;;34.40;24.75;;;9.00;99.90;;;9.02;64.77;102615.94;5093050;28;20046;-69
2022/03/01 09:20:57;;;;;;;36.75;25.25;;;9.00;99.90;;;9.28;64.90;102667.78;5074320;28;20042;-70
2022/03/01 09:23:25;;;;;;;40.20;25.65;;;8.90;99.90;;;9.25;65.50;102664.16;5092934;28;20493;-70
2022/03/01 09:25:54;;;;;;;39.00;25.50;;;8.90;99.90;;;9.03;65.27;102660.88;5093235;28;20436;-70
2022/03/01 09:28:24;;;;;;;35.53;24.83;;;8.80;99.90;;;8.95;66.10;102674.69;5075007;28;20044;-70
2022/03/01 09:30:54;;;;;;;34.50;24.63;;;8.60;99.90;;;8.81;67.04;102676.88;5092984;28;20048;-70
2022/03/01 09:33:25;;;;;;;39.47;25.48;;;8.50;99.90;;;8.79;67.56;102690.88;5093222;28;20048;-70
2022/03/01 09:35:54;;;;;;;36.88;25.80;;;8.40;99.90;;;8.90;67.90;102686.84;5093309;28;20036;-70
2022/03/01 09:38:24;;;;;;;39.70;25.33;;;8.50;99.90;;;8.86;68.88;102693.78;5092892;28;20076;-70
2022/03/01 09:40:52;;;;;;;39.78;24.85;;;8.50;99.90;;;8.76;68.16;102696.06;5093151;28;20098;-71
2022/03/01 09:43:21;;;;;;;37.80;24.88;;;8.40;99.90;;;8.29;68.52;102694.47;5093027;28;20055;-70
2022/03/01 09:45:49;;;;;;;36.30;25.60;;;8.00;99.90;;;7.61;70.06;102641.97;5092829;28;20040;-70
2022/03/01 09:48:19;;;;;;;39.85;26.40;;;7.60;99.90;;;7.37;71.83;102656.91;5093108;28;20040;-71
2022/03/01 09:50:48;;;;;;;37.08;26.25;;;7.30;99.90;;;7.41;74.12;102682.50;5093070;28;20058;-70
2022/03/01 09:53:17;;;;;;;49.75;26.40;;;7.20;99.90;;;7.46;74.34;102688.81;5075051;28;20453;-69
2022/03/01 09:55:45;;;;;;;38.60;25.80;;;7.10;99.90;;;7.34;75.49;102684.84;5093110;28;20040;-70
2022/03/01 09:58:14;;;;;;;40.20;26.80;;;7.10;99.90;;;7.08;76.04;102689.09;5074728;28;20072;-70
2022/03/01 10:00:45;;;;;;;39.08;27.25;;;6.80;99.90;;;6.90;77.50;102684.00;5092659;28;20489;-70
2022/03/01 10:03:17;;;;;;;39.22;27.45;;;6.70;99.90;;;6.99;78.97;102686.09;5093005;28;20459;-70
2022/03/01 10:05:48;;;;;;;40.92;27.80;;;6.70;99.90;;;7.28;78.22;102682.84;5074935;28;20052;-71
2022/03/01 10:08:20;;;;;;;38.00;27.38;;;6.90;99.90;;;6.87;78.56;102683.00;5074914;28;20048;-69
2022/03/01 10:10:51;;;;;;;46.55;28.30;;;6.70;99.90;;;6.98;80.85;102684.31;5092681;28;20516;-69
2022/03/01 10:13:23;;;;;;;;;;;6.70;99.90;;;6.42;80.82;102641.72;5093074;28;20528;-69
2022/03/01 10:15:52;;;;;;;38.40;27.38;;;6.50;99.90;;;6.54;81.99;102685.19;5092908;28;19923;-69
2022/03/01 10:18:21;;;;;;;43.85;28.42;;;6.30;99.90;;;6.53;82.35;102678.09;5092616;28;20048;-69
2022/03/01 10:21:04;;;;;;;47.40;30.45;;;6.30;99.90;;;6.39;83.79;102685.41;5092746;28;20382;-69
2022/03/01 10:23:33;;;;;;;44.47;29.80;;;6.20;99.90;;;6.41;83.99;102679.34;5092790;28;20473;-69
2022/03/01 10:26:16;;;;;;;49.40;30.40;;;6.20;99.90;;;6.44;85.30;102679.47;5092743;28;20071;-69